sensor_id;sensor_type;location;lat;lon;timestamp;P1;durP1;ratioP1;P2;durP2;ratioP2
15073;SDS011;7636;63.884;20.308;2022-11-23T00:00:22;1.90;;;1.40;;
15073;SDS011;7636;63.884;20.308;2022-11-23T00:03:53;1.87;;;1.50;;
15073;SDS011;7636;63.884;20.308;2022-11-23T00:07:18;1.23;;;0.90;;
15073;SDS011;7636;63.884;20.308;2022-11-23T00:10:43;1.77;;;1.30;;
15073;SDS011;7636;63.884;20.308;2022-11-23T00:14:08;1.40;;;1.20;;
15073;SDS011;7636;63.884;20.308;2022-11-23T00:17:34;1.70;;;1.03;;
15073;SDS011;7636;63.884;20.308;2022-11-23T00:21:04;1.27;;;0.87;;
15073;SDS011;7636;63.884;20.308;2022-11-23T00:24:29;2.30;;;1.33;;
15073;SDS011;7636;63.884;20.308;2022-11-23T00:27:55;1.37;;;0.90;;
15073;SDS011;7636;63.884;20.308;2022-11-23T00:31:21;1.80;;;0.90;;
15073;SDS011;7636;63.884;20.308;2022-11-23T00:34:46;1.37;;;1.27;;
15073;SDS011;7636;63.884;20.308;2022-11-23T00:38:12;1.43;;;1.10;;
15073;SDS011;7636;63.884;20.308;2022-11-23T00:41:37;1.53;;;1.10;;
15073;SDS011;7636;63.884;20.308;2022-11-23T00:45:03;1.30;;;0.90;;
15073;SDS011;7636;63.884;20.308;2022-11-23T00:48:38;1.70;;;1.00;;
15073;SDS011;7636;63.884;20.308;2022-11-23T00:52:03;1.70;;;1.03;;
15073;SDS011;7636;63.884;20.308;2022-11-23T00:55:28;2.17;;;1.20;;
15073;SDS011;7636;63.884;20.308;2022-11-23T00:58:56;1.60;;;1.30;;
15073;SDS011;7636;63.884;20.308;2022-11-23T01:02:21;1.00;;;0.73;;
15073;SDS011;7636;63.884;20.308;2022-11-23T01:05:46;1.47;;;1.10;;
15073;SDS011;7636;63.884;20.308;2022-11-23T01:09:13;1.93;;;1.10;;
15073;SDS011;7636;63.884;20.308;2022-11-23T01:12:38;2.60;;;1.33;;
15073;SDS011;7636;63.884;20.308;2022-11-23T01:16:26;2.10;;;1.33;;
15073;SDS011;7636;63.884;20.308;2022-11-23T01:19:50;1.93;;;1.20;;
15073;SDS011;7636;63.884;20.308;2022-11-23T01:23:16;2.20;;;0.90;;
15073;SDS011;7636;63.884;20.308;2022-11-23T01:26:43;2.17;;;1.03;;
15073;SDS011;7636;63.884;20.308;2022-11-23T01:30:08;2.63;;;0.80;;
15073;SDS011;7636;63.884;20.308;2022-11-23T01:33:35;1.17;;;1.07;;
15073;SDS011;7636;63.884;20.308;2022-11-23T01:37:01;0.90;;;0.77;;
15073;SDS011;7636;63.884;20.308;2022-11-23T01:40:26;0.90;;;0.70;;
15073;SDS011;7636;63.884;20.308;2022-11-23T01:43:59;2.53;;;0.80;;
15073;SDS011;7636;63.884;20.308;2022-11-23T01:47:44;0.70;;;0.70;;
15073;SDS011;7636;63.884;20.308;2022-11-23T01:51:22;3.77;;;1.30;;
15073;SDS011;7636;63.884;20.308;2022-11-23T01:54:55;2.83;;;1.27;;
15073;SDS011;7636;63.884;20.308;2022-11-23T01:58:24;0.73;;;0.73;;
15073;SDS011;7636;63.884;20.308;2022-11-23T02:01:51;1.10;;;1.00;;
15073;SDS011;7636;63.884;20.308;2022-11-23T02:05:20;1.33;;;1.10;;
15073;SDS011;7636;63.884;20.308;2022-11-23T02:08:48;1.63;;;1.00;;
15073;SDS011;7636;63.884;20.308;2022-11-23T02:12:15;1.20;;;1.10;;
15073;SDS011;7636;63.884;20.308;2022-11-23T02:15:41;0.93;;;0.87;;
15073;SDS011;7636;63.884;20.308;2022-11-23T02:19:07;1.23;;;1.10;;
15073;SDS011;7636;63.884;20.308;2022-11-23T02:29:52;1.33;;;1.10;;
15073;SDS011;7636;63.884;20.308;2022-11-23T02:33:19;1.97;;;0.97;;
15073;SDS011;7636;63.884;20.308;2022-11-23T02:36:46;1.53;;;1.20;;
15073;SDS011;7636;63.884;20.308;2022-11-23T02:40:16;1.50;;;1.03;;
15073;SDS011;7636;63.884;20.308;2022-11-23T02:43:45;2.03;;;1.40;;
15073;SDS011;7636;63.884;20.308;2022-11-23T02:47:15;2.53;;;1.40;;
15073;SDS011;7636;63.884;20.308;2022-11-23T02:50:40;1.83;;;1.20;;
15073;SDS011;7636;63.884;20.308;2022-11-23T02:54:06;1.57;;;1.00;;
15073;SDS011;7636;63.884;20.308;2022-11-23T02:57:31;1.47;;;1.17;;
15073;SDS011;7636;63.884;20.308;2022-11-23T03:00:56;1.17;;;1.07;;
15073;SDS011;7636;63.884;20.308;2022-11-23T03:04:22;1.37;;;0.93;;
15073;SDS011;7636;63.884;20.308;2022-11-23T03:07:47;1.90;;;1.10;;
15073;SDS011;7636;63.884;20.308;2022-11-23T03:11:13;1.33;;;0.80;;
15073;SDS011;7636;63.884;20.308;2022-11-23T03:14:38;1.20;;;1.10;;
15073;SDS011;7636;63.884;20.308;2022-11-23T03:18:04;1.43;;;1.20;;
15073;SDS011;7636;63.884;20.308;2022-11-23T03:21:29;2.53;;;0.70;;
15073;SDS011;7636;63.884;20.308;2022-11-23T03:24:54;1.30;;;1.17;;
15073;SDS011;7636;63.884;20.308;2022-11-23T03:28:23;1.37;;;1.00;;
15073;SDS011;7636;63.884;20.308;2022-11-23T03:31:52;1.97;;;1.47;;
15073;SDS011;7636;63.884;20.308;2022-11-23T03:35:17;2.17;;;1.27;;
15073;SDS011;7636;63.884;20.308;2022-11-23T03:38:42;2.27;;;1.33;;
15073;SDS011;7636;63.884;20.308;2022-11-23T03:42:12;1.77;;;1.27;;
15073;SDS011;7636;63.884;20.308;2022-11-23T03:45:39;0.90;;;0.80;;
15073;SDS011;7636;63.884;20.308;2022-11-23T03:49:04;2.20;;;0.90;;
15073;SDS011;7636;63.884;20.308;2022-11-23T03:52:30;2.17;;;1.50;;
15073;SDS011;7636;63.884;20.308;2022-11-23T03:55:55;1.83;;;1.03;;
15073;SDS011;7636;63.884;20.308;2022-11-23T03:59:23;1.50;;;1.17;;
15073;SDS011;7636;63.884;20.308;2022-11-23T04:02:48;1.53;;;1.00;;
15073;SDS011;7636;63.884;20.308;2022-11-23T04:06:13;1.80;;;1.13;;
15073;SDS011;7636;63.884;20.308;2022-11-23T04:09:38;1.73;;;1.07;;
15073;SDS011;7636;63.884;20.308;2022-11-23T04:13:04;2.17;;;1.13;;
15073;SDS011;7636;63.884;20.308;2022-11-23T04:16:29;1.50;;;1.20;;
15073;SDS011;7636;63.884;20.308;2022-11-23T04:19:54;1.40;;;1.00;;
15073;SDS011;7636;63.884;20.308;2022-11-23T04:23:20;1.13;;;1.03;;
15073;SDS011;7636;63.884;20.308;2022-11-23T04:26:45;1.40;;;1.00;;
15073;SDS011;7636;63.884;20.308;2022-11-23T04:30:11;1.03;;;0.87;;
15073;SDS011;7636;63.884;20.308;2022-11-23T04:33:37;1.43;;;1.10;;
15073;SDS011;7636;63.884;20.308;2022-11-23T04:37:02;1.43;;;1.20;;
15073;SDS011;7636;63.884;20.308;2022-11-23T04:40:27;1.53;;;1.10;;
15073;SDS011;7636;63.884;20.308;2022-11-23T04:43:53;1.77;;;1.13;;
15073;SDS011;7636;63.884;20.308;2022-11-23T04:47:18;0.83;;;0.77;;
15073;SDS011;7636;63.884;20.308;2022-11-23T04:50:43;1.03;;;0.87;;
15073;SDS011;7636;63.884;20.308;2022-11-23T04:54:09;1.20;;;0.93;;
15073;SDS011;7636;63.884;20.308;2022-11-23T04:57:34;2.10;;;1.13;;
15073;SDS011;7636;63.884;20.308;2022-11-23T05:01:01;2.30;;;1.20;;
15073;SDS011;7636;63.884;20.308;2022-11-23T05:04:27;1.97;;;1.23;;
15073;SDS011;7636;63.884;20.308;2022-11-23T05:07:52;1.43;;;0.97;;
15073;SDS011;7636;63.884;20.308;2022-11-23T05:11:17;1.40;;;1.13;;
15073;SDS011;7636;63.884;20.308;2022-11-23T05:14:43;0.80;;;0.70;;
15073;SDS011;7636;63.884;20.308;2022-11-23T05:18:09;3.03;;;0.80;;
15073;SDS011;7636;63.884;20.308;2022-11-23T05:21:34;2.17;;;1.20;;
15073;SDS011;7636;63.884;20.308;2022-11-23T05:25:00;2.03;;;1.40;;
15073;SDS011;7636;63.884;20.308;2022-11-23T05:28:25;1.87;;;1.47;;
15073;SDS011;7636;63.884;20.308;2022-11-23T05:31:50;1.90;;;1.13;;
15073;SDS011;7636;63.884;20.308;2022-11-23T05:35:16;1.53;;;1.10;;
15073;SDS011;7636;63.884;20.308;2022-11-23T05:38:41;1.83;;;1.10;;
15073;SDS011;7636;63.884;20.308;2022-11-23T05:42:07;1.97;;;1.40;;
15073;SDS011;7636;63.884;20.308;2022-11-23T05:45:32;1.93;;;1.43;;
15073;SDS011;7636;63.884;20.308;2022-11-23T05:48:57;2.80;;;1.00;;
15073;SDS011;7636;63.884;20.308;2022-11-23T05:52:23;1.00;;;0.80;;
15073;SDS011;7636;63.884;20.308;2022-11-23T05:55:49;3.23;;;1.20;;
15073;SDS011;7636;63.884;20.308;2022-11-23T05:59:14;2.37;;;1.00;;
15073;SDS011;7636;63.884;20.308;2022-11-23T06:02:40;2.47;;;1.30;;
15073;SDS011;7636;63.884;20.308;2022-11-23T06:06:25;2.40;;;1.57;;
15073;SDS011;7636;63.884;20.308;2022-11-23T06:09:50;1.17;;;0.87;;
15073;SDS011;7636;63.884;20.308;2022-11-23T12:10:41;2.67;;;1.27;;
15073;SDS011;7636;63.884;20.308;2022-11-23T13:28:53;4.83;;;2.87;;
15073;SDS011;7636;63.884;20.308;2022-11-23T13:32:40;4.20;;;2.50;;
15073;SDS011;7636;63.884;20.308;2022-11-23T14:14:20;4.03;;;3.37;;
15073;SDS011;7636;63.884;20.308;2022-11-23T14:38:49;4.27;;;3.20;;
15073;SDS011;7636;63.884;20.308;2022-11-23T14:43:11;4.33;;;3.13;;
15073;SDS011;7636;63.884;20.308;2022-11-23T14:47:28;5.90;;;3.37;;
15073;SDS011;7636;63.884;20.308;2022-11-23T14:51:40;7.60;;;4.00;;
15073;SDS011;7636;63.884;20.308;2022-11-23T14:55:48;10.20;;;3.90;;
15073;SDS011;7636;63.884;20.308;2022-11-23T14:59:58;5.00;;;3.50;;
15073;SDS011;7636;63.884;20.308;2022-11-23T15:04:20;4.17;;;3.13;;
15073;SDS011;7636;63.884;20.308;2022-11-23T15:08:35;4.90;;;3.30;;
15073;SDS011;7636;63.884;20.308;2022-11-23T15:12:44;5.07;;;3.43;;
15073;SDS011;7636;63.884;20.308;2022-11-23T15:16:48;4.27;;;3.07;;
15073;SDS011;7636;63.884;20.308;2022-11-23T15:25:14;5.50;;;3.80;;
15073;SDS011;7636;63.884;20.308;2022-11-23T15:29:34;5.73;;;3.53;;
15073;SDS011;7636;63.884;20.308;2022-11-23T15:34:09;6.93;;;3.53;;
15073;SDS011;7636;63.884;20.308;2022-11-23T15:38:21;5.50;;;3.57;;
15073;SDS011;7636;63.884;20.308;2022-11-23T15:42:30;4.53;;;3.20;;
15073;SDS011;7636;63.884;20.308;2022-11-23T15:46:38;6.03;;;3.13;;
15073;SDS011;7636;63.884;20.308;2022-11-23T15:55:07;7.50;;;4.30;;
15073;SDS011;7636;63.884;20.308;2022-11-23T16:03:40;5.93;;;3.33;;
15073;SDS011;7636;63.884;20.308;2022-11-23T16:12:01;6.10;;;3.87;;
15073;SDS011;7636;63.884;20.308;2022-11-23T16:16:13;6.73;;;3.57;;
15073;SDS011;7636;63.884;20.308;2022-11-23T16:20:32;6.77;;;4.03;;
15073;SDS011;7636;63.884;20.308;2022-11-23T16:24:40;6.87;;;4.40;;
15073;SDS011;7636;63.884;20.308;2022-11-23T16:28:52;6.53;;;3.43;;
